KFRR/FRR METAR and TAF weather

Enter ICAO airport designator
Station Type Date Time Source
KFRR METAR 2019/12/10 03:35 UTC NOAA

KFRR 100335Z AUTO 24012G16KT 10SM CLR 12/10 A2975 RMK AO1


Station Type Date Time Source
KFRR Decoded METAR 2019/12/10 03:35 UTC NOAA

Station name not available
Dec 09, 2019 - 10:35 PM EST / 2019.12.10 0335 UTC
Wind: from the WSW (240 degrees) at 14 MPH (12 KT) gusting to 18 MPH (16 KT):0
Visibility: 10 mile(s):0
Sky conditions: clear
Temperature: 53 F (12 C)
Dew Point: 50 F (10 C)
Relative Humidity: 87%
Pressure (altimeter): 29.75 in. Hg (1007 hPa)
ob: KFRR 100335Z AUTO 24012G16KT 10SM CLR 12/10 A2975 RMK AO1
cycle: 3

Station Type Date Time Source
KFRR TAF UTC NOAA

Error!

Example: see airport list